sensor_id;sensor_type;location;lat;lon;timestamp;P1;durP1;ratioP1;P2;durP2;ratioP2
26698;SDS011;14313;50.892;13.756;2022-08-04T00:07:04;1.10;;;1.00;;
26698;SDS011;14313;50.892;13.756;2022-08-04T00:09:53;5.53;;;1.35;;
26698;SDS011;14313;50.892;13.756;2022-08-04T00:12:28;1.40;;;1.30;;
26698;SDS011;14313;50.892;13.756;2022-08-04T00:14:57;1.40;;;1.00;;
26698;SDS011;14313;50.892;13.756;2022-08-04T00:17:30;1.92;;;1.13;;
26698;SDS011;14313;50.892;13.756;2022-08-04T00:20:03;1.80;;;1.33;;
26698;SDS011;14313;50.892;13.756;2022-08-04T00:22:30;2.92;;;1.00;;
26698;SDS011;14313;50.892;13.756;2022-08-04T00:24:56;3.22;;;1.30;;
26698;SDS011;14313;50.892;13.756;2022-08-04T00:27:26;1.38;;;1.27;;
26698;SDS011;14313;50.892;13.756;2022-08-04T00:29:53;3.05;;;1.20;;
26698;SDS011;14313;50.892;13.756;2022-08-04T00:32:19;2.83;;;0.93;;
26698;SDS011;14313;50.892;13.756;2022-08-04T00:34:45;4.65;;;1.08;;
26698;SDS011;14313;50.892;13.756;2022-08-04T00:37:11;1.67;;;0.93;;
26698;SDS011;14313;50.892;13.756;2022-08-04T00:39:36;3.50;;;1.08;;
26698;SDS011;14313;50.892;13.756;2022-08-04T00:47:14;2.63;;;1.08;;
26698;SDS011;14313;50.892;13.756;2022-08-04T00:52:36;3.45;;;1.15;;
26698;SDS011;14313;50.892;13.756;2022-08-04T00:58:21;4.20;;;1.67;;
26698;SDS011;14313;50.892;13.756;2022-08-04T01:01:08;6.38;;;1.70;;
26698;SDS011;14313;50.892;13.756;2022-08-04T01:04:23;2.75;;;1.85;;
26698;SDS011;14313;50.892;13.756;2022-08-04T01:10:36;4.35;;;1.60;;
26698;SDS011;14313;50.892;13.756;2022-08-04T01:13:24;3.25;;;1.83;;
26698;SDS011;14313;50.892;13.756;2022-08-04T01:15:59;3.83;;;1.75;;
26698;SDS011;14313;50.892;13.756;2022-08-04T01:24:04;4.03;;;2.30;;
26698;SDS011;14313;50.892;13.756;2022-08-04T01:27:02;4.88;;;1.90;;
26698;SDS011;14313;50.892;13.756;2022-08-04T01:29:33;2.58;;;1.63;;
26698;SDS011;14313;50.892;13.756;2022-08-04T01:32:03;1.38;;;1.15;;
26698;SDS011;14313;50.892;13.756;2022-08-04T01:34:35;2.55;;;1.73;;
26698;SDS011;14313;50.892;13.756;2022-08-04T01:37:50;5.20;;;1.52;;
26698;SDS011;14313;50.892;13.756;2022-08-04T01:40:12;2.03;;;1.27;;
26698;SDS011;14313;50.892;13.756;2022-08-04T01:42:38;5.20;;;1.38;;
26698;SDS011;14313;50.892;13.756;2022-08-04T01:45:06;1.52;;;1.20;;
26698;SDS011;14313;50.892;13.756;2022-08-04T01:47:34;2.25;;;1.70;;
26698;SDS011;14313;50.892;13.756;2022-08-04T01:50:06;1.35;;;1.25;;
26698;SDS011;14313;50.892;13.756;2022-08-04T01:52:33;2.50;;;1.20;;
26698;SDS011;14313;50.892;13.756;2022-08-04T01:55:06;2.03;;;1.80;;
26698;SDS011;14313;50.892;13.756;2022-08-04T01:57:34;1.98;;;1.88;;
26698;SDS011;14313;50.892;13.756;2022-08-04T02:00:02;2.10;;;1.40;;
26698;SDS011;14313;50.892;13.756;2022-08-04T02:02:29;2.70;;;1.67;;
26698;SDS011;14313;50.892;13.756;2022-08-04T02:04:54;4.50;;;1.60;;
26698;SDS011;14313;50.892;13.756;2022-08-04T02:07:27;4.60;;;1.33;;
26698;SDS011;14313;50.892;13.756;2022-08-04T02:10:05;1.60;;;1.40;;
26698;SDS011;14313;50.892;13.756;2022-08-04T02:12:37;5.65;;;1.60;;
26698;SDS011;14313;50.892;13.756;2022-08-04T02:17:56;3.60;;;1.65;;
26698;SDS011;14313;50.892;13.756;2022-08-04T02:20:32;4.30;;;1.73;;
26698;SDS011;14313;50.892;13.756;2022-08-04T02:23:00;5.30;;;2.35;;
26698;SDS011;14313;50.892;13.756;2022-08-04T02:25:31;3.45;;;1.80;;
26698;SDS011;14313;50.892;13.756;2022-08-04T02:28:07;2.20;;;1.73;;
26698;SDS011;14313;50.892;13.756;2022-08-04T02:30:42;2.92;;;1.40;;
26698;SDS011;14313;50.892;13.756;2022-08-04T02:33:17;2.20;;;1.58;;
26698;SDS011;14313;50.892;13.756;2022-08-04T02:35:47;2.33;;;1.73;;
26698;SDS011;14313;50.892;13.756;2022-08-04T02:38:34;2.50;;;2.00;;
26698;SDS011;14313;50.892;13.756;2022-08-04T02:41:17;4.22;;;1.88;;
26698;SDS011;14313;50.892;13.756;2022-08-04T02:43:46;2.03;;;1.80;;
26698;SDS011;14313;50.892;13.756;2022-08-04T02:46:12;3.00;;;1.33;;
26698;SDS011;14313;50.892;13.756;2022-08-04T02:48:42;2.45;;;1.52;;
26698;SDS011;14313;50.892;13.756;2022-08-04T02:51:10;3.17;;;1.65;;
26698;SDS011;14313;50.892;13.756;2022-08-04T02:53:37;2.63;;;1.65;;
26698;SDS011;14313;50.892;13.756;2022-08-04T02:56:06;3.17;;;1.63;;
26698;SDS011;14313;50.892;13.756;2022-08-04T02:58:33;2.08;;;1.50;;
26698;SDS011;14313;50.892;13.756;2022-08-04T03:00:59;4.50;;;1.77;;
26698;SDS011;14313;50.892;13.756;2022-08-04T03:03:30;2.08;;;1.52;;
26698;SDS011;14313;50.892;13.756;2022-08-04T03:06:23;4.00;;;1.65;;
26698;SDS011;14313;50.892;13.756;2022-08-04T03:12:01;2.17;;;1.90;;
26698;SDS011;14313;50.892;13.756;2022-08-04T03:14:52;2.72;;;1.70;;
26698;SDS011;14313;50.892;13.756;2022-08-04T03:29:22;4.43;;;2.13;;
26698;SDS011;14313;50.892;13.756;2022-08-04T03:37:58;1.95;;;1.77;;
26698;SDS011;14313;50.892;13.756;2022-08-04T03:46:24;5.10;;;2.28;;
26698;SDS011;14313;50.892;13.756;2022-08-04T03:58:00;6.75;;;2.47;;
26698;SDS011;14313;50.892;13.756;2022-08-04T04:03:29;5.32;;;2.55;;
26698;SDS011;14313;50.892;13.756;2022-08-04T04:09:11;5.55;;;2.40;;
26698;SDS011;14313;50.892;13.756;2022-08-04T04:11:43;7.72;;;2.42;;
26698;SDS011;14313;50.892;13.756;2022-08-04T04:14:17;10.85;;;2.70;;
26698;SDS011;14313;50.892;13.756;2022-08-04T04:16:57;7.22;;;2.10;;
26698;SDS011;14313;50.892;13.756;2022-08-04T04:25:07;13.20;;;2.50;;
26698;SDS011;14313;50.892;13.756;2022-08-04T04:28:11;7.00;;;2.50;;
26698;SDS011;14313;50.892;13.756;2022-08-04T04:31:19;6.38;;;2.25;;
26698;SDS011;14313;50.892;13.756;2022-08-04T04:34:00;6.72;;;2.53;;
26698;SDS011;14313;50.892;13.756;2022-08-04T04:36:38;7.50;;;2.65;;
26698;SDS011;14313;50.892;13.756;2022-08-04T04:39:36;5.93;;;2.28;;
26698;SDS011;14313;50.892;13.756;2022-08-04T04:47:57;15.85;;;3.22;;
26698;SDS011;14313;50.892;13.756;2022-08-04T04:50:55;10.85;;;2.70;;
26698;SDS011;14313;50.892;13.756;2022-08-04T04:53:34;9.02;;;2.72;;
26698;SDS011;14313;50.892;13.756;2022-08-04T04:56:16;11.98;;;3.13;;
26698;SDS011;14313;50.892;13.756;2022-08-04T04:58:51;8.02;;;2.10;;
26698;SDS011;14313;50.892;13.756;2022-08-04T05:01:29;8.57;;;2.92;;
26698;SDS011;14313;50.892;13.756;2022-08-04T05:04:24;11.73;;;2.80;;
26698;SDS011;14313;50.892;13.756;2022-08-04T05:09:57;6.40;;;2.70;;
26698;SDS011;14313;50.892;13.756;2022-08-04T05:12:47;14.68;;;6.70;;
26698;SDS011;14313;50.892;13.756;2022-08-04T05:15:23;13.77;;;3.78;;
26698;SDS011;14313;50.892;13.756;2022-08-04T05:17:52;9.25;;;2.78;;
26698;SDS011;14313;50.892;13.756;2022-08-04T05:20:25;6.75;;;2.20;;
26698;SDS011;14313;50.892;13.756;2022-08-04T05:25:52;6.10;;;2.45;;
26698;SDS011;14313;50.892;13.756;2022-08-04T05:28:27;8.57;;;2.60;;
26698;SDS011;14313;50.892;13.756;2022-08-04T05:30:58;3.38;;;2.40;;
26698;SDS011;14313;50.892;13.756;2022-08-04T05:33:28;8.25;;;2.50;;
26698;SDS011;14313;50.892;13.756;2022-08-04T05:36:05;5.07;;;2.17;;
26698;SDS011;14313;50.892;13.756;2022-08-04T05:38:35;6.00;;;2.42;;
26698;SDS011;14313;50.892;13.756;2022-08-04T05:41:03;14.23;;;2.65;;
26698;SDS011;14313;50.892;13.756;2022-08-04T05:43:30;10.80;;;2.50;;
26698;SDS011;14313;50.892;13.756;2022-08-04T05:45:56;6.13;;;2.40;;
26698;SDS011;14313;50.892;13.756;2022-08-04T05:48:23;7.47;;;2.22;;
26698;SDS011;14313;50.892;13.756;2022-08-04T05:50:49;8.30;;;2.45;;
26698;SDS011;14313;50.892;13.756;2022-08-04T05:53:16;5.53;;;1.70;;
26698;SDS011;14313;50.892;13.756;2022-08-04T05:55:42;1.40;;;1.13;;
26698;SDS011;14313;50.892;13.756;2022-08-04T05:58:10;2.53;;;1.45;;
26698;SDS011;14313;50.892;13.756;2022-08-04T06:00:37;1.95;;;1.15;;
26698;SDS011;14313;50.892;13.756;2022-08-04T06:03:05;2.25;;;1.50;;
26698;SDS011;14313;50.892;13.756;2022-08-04T06:05:33;5.60;;;1.77;;
26698;SDS011;14313;50.892;13.756;2022-08-04T06:07:59;9.35;;;2.92;;
26698;SDS011;14313;50.892;13.756;2022-08-04T06:10:25;11.10;;;3.67;;
26698;SDS011;14313;50.892;13.756;2022-08-04T06:12:51;11.18;;;3.88;;
26698;SDS011;14313;50.892;13.756;2022-08-04T06:15:19;4.82;;;1.42;;
26698;SDS011;14313;50.892;13.756;2022-08-04T06:17:51;8.65;;;3.67;;
26698;SDS011;14313;50.892;13.756;2022-08-04T06:20:19;29.10;;;7.75;;
26698;SDS011;14313;50.892;13.756;2022-08-04T06:22:49;16.73;;;3.92;;
26698;SDS011;14313;50.892;13.756;2022-08-04T06:25:18;5.10;;;2.03;;
26698;SDS011;14313;50.892;13.756;2022-08-04T06:27:47;5.25;;;1.92;;
26698;SDS011;14313;50.892;13.756;2022-08-04T06:30:14;14.35;;;4.40;;
26698;SDS011;14313;50.892;13.756;2022-08-04T06:32:43;5.72;;;2.38;;
26698;SDS011;14313;50.892;13.756;2022-08-04T06:35:19;16.05;;;4.95;;
26698;SDS011;14313;50.892;13.756;2022-08-04T06:37:46;34.33;;;7.20;;
26698;SDS011;14313;50.892;13.756;2022-08-04T06:40:12;16.73;;;4.95;;
26698;SDS011;14313;50.892;13.756;2022-08-04T06:42:39;10.27;;;2.38;;
26698;SDS011;14313;50.892;13.756;2022-08-04T06:45:06;3.33;;;1.73;;
26698;SDS011;14313;50.892;13.756;2022-08-04T06:47:33;29.42;;;7.32;;
26698;SDS011;14313;50.892;13.756;2022-08-04T06:50:01;14.23;;;4.13;;
26698;SDS011;14313;50.892;13.756;2022-08-04T06:52:29;6.90;;;2.78;;
26698;SDS011;14313;50.892;13.756;2022-08-04T06:54:55;8.95;;;3.30;;
26698;SDS011;14313;50.892;13.756;2022-08-04T06:57:23;7.07;;;2.13;;
26698;SDS011;14313;50.892;13.756;2022-08-04T06:59:56;4.75;;;1.58;;
26698;SDS011;14313;50.892;13.756;2022-08-04T07:02:25;10.43;;;1.50;;
26698;SDS011;14313;50.892;13.756;2022-08-04T07:04:52;4.13;;;1.08;;
26698;SDS011;14313;50.892;13.756;2022-08-04T07:07:18;2.28;;;0.80;;
26698;SDS011;14313;50.892;13.756;2022-08-04T07:09:44;2.83;;;1.10;;
26698;SDS011;14313;50.892;13.756;2022-08-04T07:12:10;3.78;;;0.95;;
26698;SDS011;14313;50.892;13.756;2022-08-04T07:14:36;1.00;;;0.95;;
26698;SDS011;14313;50.892;13.756;2022-08-04T07:17:04;2.53;;;0.90;;
26698;SDS011;14313;50.892;13.756;2022-08-04T07:19:33;8.18;;;1.45;;
26698;SDS011;14313;50.892;13.756;2022-08-04T07:22:00;1.60;;;1.15;;
26698;SDS011;14313;50.892;13.756;2022-08-04T07:24:30;3.55;;;1.15;;
26698;SDS011;14313;50.892;13.756;2022-08-04T07:26:56;1.33;;;1.17;;
26698;SDS011;14313;50.892;13.756;2022-08-04T07:29:22;4.57;;;1.27;;
26698;SDS011;14313;50.892;13.756;2022-08-04T07:31:48;5.65;;;1.17;;
26698;SDS011;14313;50.892;13.756;2022-08-04T07:34:14;3.95;;;1.10;;
26698;SDS011;14313;50.892;13.756;2022-08-04T07:36:39;1.75;;;1.20;;
26698;SDS011;14313;50.892;13.756;2022-08-04T07:39:05;3.63;;;1.52;;
26698;SDS011;14313;50.892;13.756;2022-08-04T07:41:30;8.05;;;1.33;;
26698;SDS011;14313;50.892;13.756;2022-08-04T07:43:56;7.10;;;1.50;;
26698;SDS011;14313;50.892;13.756;2022-08-04T07:46:21;6.22;;;1.63;;
26698;SDS011;14313;50.892;13.756;2022-08-04T07:48:48;7.20;;;1.50;;
26698;SDS011;14313;50.892;13.756;2022-08-04T07:51:14;4.00;;;1.42;;
26698;SDS011;14313;50.892;13.756;2022-08-04T07:53:40;8.85;;;1.23;;
26698;SDS011;14313;50.892;13.756;2022-08-04T07:56:06;8.95;;;1.30;;
26698;SDS011;14313;50.892;13.756;2022-08-04T07:58:32;6.85;;;1.15;;
26698;SDS011;14313;50.892;13.756;2022-08-04T08:00:57;6.13;;;1.40;;
26698;SDS011;14313;50.892;13.756;2022-08-04T08:03:24;4.57;;;1.23;;
26698;SDS011;14313;50.892;13.756;2022-08-04T08:05:50;3.72;;;1.25;;
26698;SDS011;14313;50.892;13.756;2022-08-04T08:08:16;1.75;;;1.25;;
26698;SDS011;14313;50.892;13.756;2022-08-04T08:10:45;2.60;;;0.98;;
26698;SDS011;14313;50.892;13.756;2022-08-04T08:13:11;5.53;;;1.20;;
26698;SDS011;14313;50.892;13.756;2022-08-04T08:15:36;5.72;;;1.48;;
26698;SDS011;14313;50.892;13.756;2022-08-04T08:18:02;4.95;;;1.00;;
26698;SDS011;14313;50.892;13.756;2022-08-04T08:20:28;1.65;;;1.08;;
26698;SDS011;14313;50.892;13.756;2022-08-04T08:22:55;3.85;;;1.23;;
26698;SDS011;14313;50.892;13.756;2022-08-04T08:25:20;7.50;;;1.33;;
26698;SDS011;14313;50.892;13.756;2022-08-04T08:27:45;4.63;;;1.08;;
26698;SDS011;14313;50.892;13.756;2022-08-04T08:30:11;3.47;;;1.05;;
26698;SDS011;14313;50.892;13.756;2022-08-04T08:32:36;1.48;;;0.93;;
26698;SDS011;14313;50.892;13.756;2022-08-04T08:35:02;5.38;;;1.60;;
26698;SDS011;14313;50.892;13.756;2022-08-04T08:37:40;2.35;;;1.17;;
26698;SDS011;14313;50.892;13.756;2022-08-04T08:43:04;3.92;;;1.15;;
26698;SDS011;14313;50.892;13.756;2022-08-04T08:48:49;18.05;;;1.80;;
26698;SDS011;14313;50.892;13.756;2022-08-04T08:51:29;3.28;;;1.10;;
26698;SDS011;14313;50.892;13.756;2022-08-04T08:59:49;2.85;;;1.00;;
26698;SDS011;14313;50.892;13.756;2022-08-04T09:08:22;2.63;;;1.25;;
26698;SDS011;14313;50.892;13.756;2022-08-04T09:11:07;2.75;;;1.00;;
26698;SDS011;14313;50.892;13.756;2022-08-04T09:13:41;4.38;;;0.98;;
26698;SDS011;14313;50.892;13.756;2022-08-04T09:18:46;2.92;;;1.00;;
26698;SDS011;14313;50.892;13.756;2022-08-04T09:21:22;3.70;;;0.82;;
26698;SDS011;14313;50.892;13.756;2022-08-04T09:24:02;0.88;;;0.88;;
26698;SDS011;14313;50.892;13.756;2022-08-04T09:29:29;2.22;;;1.10;;
26698;SDS011;14313;50.892;13.756;2022-08-04T09:37:39;3.33;;;1.02;;
26698;SDS011;14313;50.892;13.756;2022-08-04T09:43:04;3.05;;;0.90;;
26698;SDS011;14313;50.892;13.756;2022-08-04T09:45:43;2.03;;;1.00;;
26698;SDS011;14313;50.892;13.756;2022-08-04T09:48:18;1.75;;;1.08;;
26698;SDS011;14313;50.892;13.756;2022-08-04T09:50:52;5.18;;;1.38;;
26698;SDS011;14313;50.892;13.756;2022-08-04T09:56:19;1.67;;;0.90;;
26698;SDS011;14313;50.892;13.756;2022-08-04T09:59:05;1.00;;;1.00;;
26698;SDS011;14313;50.892;13.756;2022-08-04T10:01:42;3.45;;;1.25;;
26698;SDS011;14313;50.892;13.756;2022-08-04T10:04:09;5.18;;;0.98;;
26698;SDS011;14313;50.892;13.756;2022-08-04T10:07:02;3.83;;;1.20;;
26698;SDS011;14313;50.892;13.756;2022-08-04T10:14:52;1.48;;;0.93;;
26698;SDS011;14313;50.892;13.756;2022-08-04T10:23:10;0.98;;;0.70;;
26698;SDS011;14313;50.892;13.756;2022-08-04T10:28:23;3.80;;;1.02;;
26698;SDS011;14313;50.892;13.756;2022-08-04T10:30:53;5.88;;;1.20;;
26698;SDS011;14313;50.892;13.756;2022-08-04T10:33:23;1.50;;;1.20;;
26698;SDS011;14313;50.892;13.756;2022-08-04T10:36:02;1.05;;;0.98;;
26698;SDS011;14313;50.892;13.756;2022-08-04T10:38:31;1.58;;;1.10;;
26698;SDS011;14313;50.892;13.756;2022-08-04T10:43:58;4.15;;;1.13;;
26698;SDS011;14313;50.892;13.756;2022-08-04T10:46:35;1.50;;;1.40;;
26698;SDS011;14313;50.892;13.756;2022-08-04T10:49:07;4.68;;;0.93;;
26698;SDS011;14313;50.892;13.756;2022-08-04T10:54:12;1.15;;;0.98;;
26698;SDS011;14313;50.892;13.756;2022-08-04T10:56:54;2.30;;;1.08;;
26698;SDS011;14313;50.892;13.756;2022-08-04T11:01:54;1.52;;;0.95;;
26698;SDS011;14313;50.892;13.756;2022-08-04T11:07:12;3.40;;;1.30;;
26698;SDS011;14313;50.892;13.756;2022-08-04T11:09:40;3.00;;;1.40;;
26698;SDS011;14313;50.892;13.756;2022-08-04T11:12:15;4.78;;;1.38;;
26698;SDS011;14313;50.892;13.756;2022-08-04T11:14:46;2.05;;;1.40;;
26698;SDS011;14313;50.892;13.756;2022-08-04T11:17:21;2.67;;;1.67;;
26698;SDS011;14313;50.892;13.756;2022-08-04T11:22:38;1.92;;;0.95;;
26698;SDS011;14313;50.892;13.756;2022-08-04T11:25:21;2.05;;;1.23;;
26698;SDS011;14313;50.892;13.756;2022-08-04T11:28:00;3.05;;;1.00;;
26698;SDS011;14313;50.892;13.756;2022-08-04T11:30:41;2.40;;;1.13;;
26698;SDS011;14313;50.892;13.756;2022-08-04T11:33:20;2.78;;;1.35;;
26698;SDS011;14313;50.892;13.756;2022-08-04T11:41:46;1.25;;;1.13;;
26698;SDS011;14313;50.892;13.756;2022-08-04T11:44:17;0.90;;;0.90;;
26698;SDS011;14313;50.892;13.756;2022-08-04T11:46:49;5.65;;;1.23;;
26698;SDS011;14313;50.892;13.756;2022-08-04T11:49:23;4.13;;;1.45;;
26698;SDS011;14313;50.892;13.756;2022-08-04T11:51:54;4.63;;;1.30;;
26698;SDS011;14313;50.892;13.756;2022-08-04T11:54:22;8.30;;;1.67;;
26698;SDS011;14313;50.892;13.756;2022-08-04T11:56:47;7.07;;;1.17;;
26698;SDS011;14313;50.892;13.756;2022-08-04T11:59:13;4.57;;;1.30;;
26698;SDS011;14313;50.892;13.756;2022-08-04T12:07:19;6.43;;;1.17;;
26698;SDS011;14313;50.892;13.756;2022-08-04T12:12:34;3.15;;;1.30;;
26698;SDS011;14313;50.892;13.756;2022-08-04T12:15:28;4.68;;;1.10;;
26698;SDS011;14313;50.892;13.756;2022-08-04T12:17:58;3.53;;;1.42;;
26698;SDS011;14313;50.892;13.756;2022-08-04T12:20:50;2.55;;;1.27;;
26698;SDS011;14313;50.892;13.756;2022-08-04T12:23:30;9.27;;;1.45;;
26698;SDS011;14313;50.892;13.756;2022-08-04T12:26:02;6.20;;;1.52;;
26698;SDS011;14313;50.892;13.756;2022-08-04T12:28:39;4.43;;;1.10;;
26698;SDS011;14313;50.892;13.756;2022-08-04T12:31:10;8.43;;;1.45;;
26698;SDS011;14313;50.892;13.756;2022-08-04T12:33:44;3.65;;;1.13;;
26698;SDS011;14313;50.892;13.756;2022-08-04T12:36:19;2.10;;;1.10;;
26698;SDS011;14313;50.892;13.756;2022-08-04T12:38:54;2.50;;;1.40;;
26698;SDS011;14313;50.892;13.756;2022-08-04T12:41:27;5.70;;;1.75;;
26698;SDS011;14313;50.892;13.756;2022-08-04T12:44:03;8.18;;;1.83;;
26698;SDS011;14313;50.892;13.756;2022-08-04T12:46:30;5.65;;;1.40;;
26698;SDS011;14313;50.892;13.756;2022-08-04T12:48:58;4.45;;;1.55;;
26698;SDS011;14313;50.892;13.756;2022-08-04T12:51:26;4.70;;;1.40;;
26698;SDS011;14313;50.892;13.756;2022-08-04T12:53:52;2.45;;;1.33;;
26698;SDS011;14313;50.892;13.756;2022-08-04T12:56:23;4.55;;;1.20;;
26698;SDS011;14313;50.892;13.756;2022-08-04T12:58:51;7.05;;;1.45;;
26698;SDS011;14313;50.892;13.756;2022-08-04T13:01:19;5.68;;;1.67;;
26698;SDS011;14313;50.892;13.756;2022-08-04T13:03:49;1.88;;;1.55;;
26698;SDS011;14313;50.892;13.756;2022-08-04T13:06:21;11.80;;;1.77;;
26698;SDS011;14313;50.892;13.756;2022-08-04T13:08:49;4.55;;;1.52;;
26698;SDS011;14313;50.892;13.756;2022-08-04T13:11:15;3.00;;;1.20;;
26698;SDS011;14313;50.892;13.756;2022-08-04T13:13:42;12.75;;;1.95;;
26698;SDS011;14313;50.892;13.756;2022-08-04T13:16:09;4.60;;;1.17;;
26698;SDS011;14313;50.892;13.756;2022-08-04T13:18:38;3.95;;;1.27;;
26698;SDS011;14313;50.892;13.756;2022-08-04T13:21:17;2.83;;;1.17;;
26698;SDS011;14313;50.892;13.756;2022-08-04T13:23:45;6.38;;;1.63;;
26698;SDS011;14313;50.892;13.756;2022-08-04T13:26:13;2.85;;;1.33;;
26698;SDS011;14313;50.892;13.756;2022-08-04T13:28:40;4.75;;;1.52;;
26698;SDS011;14313;50.892;13.756;2022-08-04T13:31:08;2.08;;;1.70;;
26698;SDS011;14313;50.892;13.756;2022-08-04T13:33:38;2.10;;;1.65;;
26698;SDS011;14313;50.892;13.756;2022-08-04T13:36:05;5.03;;;1.38;;
26698;SDS011;14313;50.892;13.756;2022-08-04T13:38:32;1.83;;;1.23;;
26698;SDS011;14313;50.892;13.756;2022-08-04T13:41:01;7.32;;;1.50;;
26698;SDS011;14313;50.892;13.756;2022-08-04T13:43:29;3.05;;;1.85;;
26698;SDS011;14313;50.892;13.756;2022-08-04T13:45:58;4.82;;;1.55;;
26698;SDS011;14313;50.892;13.756;2022-08-04T13:48:30;4.10;;;1.50;;
26698;SDS011;14313;50.892;13.756;2022-08-04T13:51:03;3.58;;;1.38;;
26698;SDS011;14313;50.892;13.756;2022-08-04T13:53:31;4.13;;;1.50;;
26698;SDS011;14313;50.892;13.756;2022-08-04T13:55:58;2.55;;;1.33;;
26698;SDS011;14313;50.892;13.756;2022-08-04T13:58:25;3.20;;;1.85;;
26698;SDS011;14313;50.892;13.756;2022-08-04T14:03:33;3.35;;;1.50;;
26698;SDS011;14313;50.892;13.756;2022-08-04T14:06:05;4.20;;;1.50;;
26698;SDS011;14313;50.892;13.756;2022-08-04T14:08:35;2.20;;;1.17;;
26698;SDS011;14313;50.892;13.756;2022-08-04T14:11:10;4.55;;;1.60;;
26698;SDS011;14313;50.892;13.756;2022-08-04T14:13:36;2.92;;;1.88;;
26698;SDS011;14313;50.892;13.756;2022-08-04T14:16:01;2.95;;;1.65;;
26698;SDS011;14313;50.892;13.756;2022-08-04T14:18:38;7.43;;;1.63;;
26698;SDS011;14313;50.892;13.756;2022-08-04T14:21:07;3.63;;;1.52;;
26698;SDS011;14313;50.892;13.756;2022-08-04T14:28:39;7.20;;;1.43;;
26698;SDS011;14313;50.892;13.756;2022-08-04T14:31:13;5.13;;;1.35;;
26698;SDS011;14313;50.892;13.756;2022-08-04T14:33:41;3.15;;;1.00;;
26698;SDS011;14313;50.892;13.756;2022-08-04T14:36:07;1.45;;;1.08;;
26698;SDS011;14313;50.892;13.756;2022-08-04T14:38:44;3.22;;;1.30;;
26698;SDS011;14313;50.892;13.756;2022-08-04T14:41:12;2.45;;;1.30;;
26698;SDS011;14313;50.892;13.756;2022-08-04T14:43:42;1.63;;;1.20;;
26698;SDS011;14313;50.892;13.756;2022-08-04T14:46:09;3.75;;;0.90;;
26698;SDS011;14313;50.892;13.756;2022-08-04T14:48:36;2.83;;;1.10;;
26698;SDS011;14313;50.892;13.756;2022-08-04T14:51:02;4.95;;;1.27;;
26698;SDS011;14313;50.892;13.756;2022-08-04T14:53:27;3.90;;;1.10;;
26698;SDS011;14313;50.892;13.756;2022-08-04T14:55:56;1.45;;;1.20;;
26698;SDS011;14313;50.892;13.756;2022-08-04T14:58:27;1.65;;;1.10;;
26698;SDS011;14313;50.892;13.756;2022-08-04T15:00:55;3.75;;;1.23;;
26698;SDS011;14313;50.892;13.756;2022-08-04T15:03:22;8.60;;;1.73;;
26698;SDS011;14313;50.892;13.756;2022-08-04T15:05:48;3.58;;;1.40;;
26698;SDS011;14313;50.892;13.756;2022-08-04T15:08:14;4.72;;;1.08;;
26698;SDS011;14313;50.892;13.756;2022-08-04T15:10:40;4.57;;;1.27;;
26698;SDS011;14313;50.892;13.756;2022-08-04T15:13:08;2.58;;;1.02;;
26698;SDS011;14313;50.892;13.756;2022-08-04T15:15:36;8.02;;;1.80;;
26698;SDS011;14313;50.892;13.756;2022-08-04T15:18:03;3.28;;;1.00;;
26698;SDS011;14313;50.892;13.756;2022-08-04T15:20:31;3.53;;;1.20;;
26698;SDS011;14313;50.892;13.756;2022-08-04T15:22:56;5.82;;;1.38;;
26698;SDS011;14313;50.892;13.756;2022-08-04T15:25:22;2.08;;;1.40;;
26698;SDS011;14313;50.892;13.756;2022-08-04T15:27:48;2.70;;;1.10;;
26698;SDS011;14313;50.892;13.756;2022-08-04T15:30:15;1.75;;;1.08;;
26698;SDS011;14313;50.892;13.756;2022-08-04T15:32:45;1.85;;;1.70;;
26698;SDS011;14313;50.892;13.756;2022-08-04T15:35:23;3.97;;;1.30;;
26698;SDS011;14313;50.892;13.756;2022-08-04T15:40:46;2.30;;;1.52;;
26698;SDS011;14313;50.892;13.756;2022-08-04T15:43:36;5.95;;;1.52;;
26698;SDS011;14313;50.892;13.756;2022-08-04T15:46:04;1.45;;;1.30;;
26698;SDS011;14313;50.892;13.756;2022-08-04T15:48:30;2.00;;;1.42;;
26698;SDS011;14313;50.892;13.756;2022-08-04T15:53:22;3.17;;;1.50;;
26698;SDS011;14313;50.892;13.756;2022-08-04T15:55:48;9.63;;;1.50;;
26698;SDS011;14313;50.892;13.756;2022-08-04T15:58:14;4.28;;;1.20;;
26698;SDS011;14313;50.892;13.756;2022-08-04T16:05:54;3.00;;;1.73;;
26698;SDS011;14313;50.892;13.756;2022-08-04T16:08:20;6.80;;;1.73;;
26698;SDS011;14313;50.892;13.756;2022-08-04T16:10:46;7.63;;;1.67;;
26698;SDS011;14313;50.892;13.756;2022-08-04T16:13:13;4.15;;;1.20;;
26698;SDS011;14313;50.892;13.756;2022-08-04T16:15:44;3.15;;;1.38;;
26698;SDS011;14313;50.892;13.756;2022-08-04T16:18:21;2.80;;;1.60;;
26698;SDS011;14313;50.892;13.756;2022-08-04T16:20:58;8.52;;;1.63;;
26698;SDS011;14313;50.892;13.756;2022-08-04T16:29:46;4.63;;;1.65;;
26698;SDS011;14313;50.892;13.756;2022-08-04T16:34:34;1.52;;;1.40;;
26698;SDS011;14313;50.892;13.756;2022-08-04T16:37:01;2.92;;;1.42;;
26698;SDS011;14313;50.892;13.756;2022-08-04T16:39:31;8.40;;;1.67;;
26698;SDS011;14313;50.892;13.756;2022-08-04T16:41:57;2.15;;;1.42;;
26698;SDS011;14313;50.892;13.756;2022-08-04T16:47:02;7.47;;;1.75;;
26698;SDS011;14313;50.892;13.756;2022-08-04T16:49:29;5.25;;;1.25;;
26698;SDS011;14313;50.892;13.756;2022-08-04T16:52:00;2.20;;;1.30;;
26698;SDS011;14313;50.892;13.756;2022-08-04T16:54:34;5.97;;;1.33;;
26698;SDS011;14313;50.892;13.756;2022-08-04T16:57:07;8.10;;;1.75;;
26698;SDS011;14313;50.892;13.756;2022-08-04T16:59:33;5.72;;;1.10;;
26698;SDS011;14313;50.892;13.756;2022-08-04T17:01:58;2.55;;;1.10;;
26698;SDS011;14313;50.892;13.756;2022-08-04T17:04:31;4.50;;;1.42;;
26698;SDS011;14313;50.892;13.756;2022-08-04T17:07:02;5.03;;;1.10;;
26698;SDS011;14313;50.892;13.756;2022-08-04T17:09:29;2.80;;;1.20;;
26698;SDS011;14313;50.892;13.756;2022-08-04T17:11:55;3.17;;;1.23;;
26698;SDS011;14313;50.892;13.756;2022-08-04T17:14:22;3.40;;;1.30;;
26698;SDS011;14313;50.892;13.756;2022-08-04T17:16:48;6.72;;;1.60;;
26698;SDS011;14313;50.892;13.756;2022-08-04T17:19:15;6.28;;;1.30;;
26698;SDS011;14313;50.892;13.756;2022-08-04T17:21:41;3.53;;;1.27;;
26698;SDS011;14313;50.892;13.756;2022-08-04T17:24:06;3.90;;;1.20;;
26698;SDS011;14313;50.892;13.756;2022-08-04T17:26:33;2.08;;;1.05;;
26698;SDS011;14313;50.892;13.756;2022-08-04T17:28:59;8.77;;;1.20;;
26698;SDS011;14313;50.892;13.756;2022-08-04T17:31:25;3.60;;;1.15;;
26698;SDS011;14313;50.892;13.756;2022-08-04T17:33:53;1.45;;;0.90;;
26698;SDS011;14313;50.892;13.756;2022-08-04T17:36:21;5.25;;;1.13;;
26698;SDS011;14313;50.892;13.756;2022-08-04T17:38:52;5.78;;;1.10;;
26698;SDS011;14313;50.892;13.756;2022-08-04T17:41:20;4.60;;;1.02;;
26698;SDS011;14313;50.892;13.756;2022-08-04T17:46:23;3.80;;;0.88;;
26698;SDS011;14313;50.892;13.756;2022-08-04T17:48:58;2.92;;;0.90;;
26698;SDS011;14313;50.892;13.756;2022-08-04T17:51:42;4.30;;;1.33;;
26698;SDS011;14313;50.892;13.756;2022-08-04T17:54:13;6.80;;;1.17;;
26698;SDS011;14313;50.892;13.756;2022-08-04T17:56:46;4.15;;;1.30;;
26698;SDS011;14313;50.892;13.756;2022-08-04T17:59:17;3.17;;;1.05;;
26698;SDS011;14313;50.892;13.756;2022-08-04T18:06:55;7.40;;;0.95;;
26698;SDS011;14313;50.892;13.756;2022-08-04T18:09:29;4.32;;;1.08;;
26698;SDS011;14313;50.892;13.756;2022-08-04T18:11:57;13.23;;;1.40;;
26698;SDS011;14313;50.892;13.756;2022-08-04T18:14:25;1.63;;;1.05;;
26698;SDS011;14313;50.892;13.756;2022-08-04T18:16:52;3.17;;;1.20;;
26698;SDS011;14313;50.892;13.756;2022-08-04T18:19:17;2.45;;;0.90;;